Time;durP1;ratioP1;P1;durP2;ratioP2;P2;SDS_P1;SDS_P2;PMS_P1;PMS_P2;Temp;Humidity;BMP_temperature;BMP_pressure;BME280_temperature;BME280_humidity;BME280_pressure;Samples;Min_cycle;Max_cycle;Signal;HPM_P1;HPM_P2
2021/07/25 00:02:11;;;;;;;6.93;5.13;;;;;;;20.36;56.21;100578.56;5086050;28;20055;-64
2021/07/25 00:04:36;;;;;;;7.72;5.10;;;;;;;20.30;56.60;100574.41;5085754;28;20020;-64
2021/07/25 00:07:02;;;;;;;5.63;4.50;;;;;;;20.29;56.94;100572.72;5085309;28;20035;-64
2021/07/25 00:09:27;;;;;;;6.72;4.43;;;;;;;20.28;56.75;100578.94;5085777;28;20042;-65
2021/07/25 00:11:53;;;;;;;6.72;4.72;;;;;;;20.26;57.10;100588.69;5085833;28;20020;-65
2021/07/25 00:14:18;;;;;;;5.82;4.63;;;;;;;20.24;56.92;100574.72;5085872;28;20020;-65
2021/07/25 00:16:43;;;;;;;10.13;5.90;;;;;;;20.23;57.21;100567.75;5085536;28;20032;-64
2021/07/25 00:19:12;;;;;;;8.30;4.75;;;;;;;20.17;57.45;100571.53;5085677;28;20095;-65
2021/07/25 00:21:37;;;;;;;8.48;5.78;;;;;;;20.14;57.68;100568.16;5085848;28;20082;-64
2021/07/25 00:24:03;;;;;;;8.32;5.38;;;;;;;20.10;57.63;100566.59;5085625;28;20024;-64
2021/07/25 00:26:35;;;;;;;7.50;5.70;;;;;;;20.04;58.05;100570.38;5085599;28;20024;-65
2021/07/25 00:29:00;;;;;;;9.30;5.63;;;;;;;19.97;58.19;100572.38;5085610;28;20076;-66
2021/07/25 00:31:29;;;;;;;7.38;5.03;;;;;;;19.94;58.43;100565.50;5085621;28;20032;-66
2021/07/25 00:33:55;;;;;;;7.22;5.03;;;;;;;19.94;58.59;100573.41;5085512;28;20024;-65
2021/07/25 00:36:21;;;;;;;8.15;5.88;;;;;;;19.90;58.73;100569.19;5085416;28;20021;-65
2021/07/25 00:38:46;;;;;;;8.07;5.28;;;;;;;19.88;58.65;100562.28;5085047;28;20031;-65
2021/07/25 00:41:15;;;;;;;8.75;5.60;;;;;;;19.85;59.07;100568.53;5085443;28;20032;-65
2021/07/25 00:43:41;;;;;;;6.05;5.25;;;;;;;19.82;59.06;100563.41;5085300;28;20052;-65
2021/07/25 00:46:07;;;;;;;7.45;5.28;;;;;;;19.79;59.46;100561.75;5084028;28;20104;-65
2021/07/25 00:48:35;;;;;;;8.90;5.85;;;;;;;19.78;59.59;100560.06;5085010;28;20024;-65
2021/07/25 00:51:00;;;;;;;8.70;5.28;;;;;;;19.74;59.96;100561.13;5084985;28;20025;-65
2021/07/25 00:53:29;;;;;;;8.35;5.50;;;;;;;19.72;59.68;100570.00;5085091;28;20024;-65
2021/07/25 00:55:55;;;;;;;7.35;5.00;;;;;;;19.65;59.93;100562.38;5084902;28;20107;-65
2021/07/25 00:58:21;;;;;;;10.75;5.93;;;;;;;19.66;60.37;100569.38;5084975;28;20045;-64
2021/07/25 01:00:47;;;;;;;8.65;5.53;;;;;;;19.62;60.47;100573.06;5085070;28;20020;-66
2021/07/25 01:03:33;;;;;;;7.75;5.07;;;;;;;19.60;60.65;100574.88;5084936;28;20066;-64
2021/07/25 01:06:15;;;;;;;10.30;5.20;;;;;;;19.59;60.93;100572.31;5084551;28;20091;-64
2021/07/25 01:09:01;;;;;;;6.22;5.40;;;;;;;19.55;60.99;100569.81;5084803;28;20036;-65
2021/07/25 01:11:33;;;;;;;8.05;4.90;;;;;;;19.52;61.42;100566.50;5085095;28;20032;-65
2021/07/25 01:14:02;;;;;;;8.55;5.60;;;;;;;19.48;61.45;100568.38;5084641;28;20088;-65
2021/07/25 01:16:27;;;;;;;10.13;5.80;;;;;;;19.46;61.83;100572.03;5084706;28;20024;-65
2021/07/25 01:18:53;;;;;;;9.40;6.20;;;;;;;19.42;62.16;100571.28;5083854;28;20021;-64
2021/07/25 01:21:19;;;;;;;9.55;5.75;;;;;;;19.33;62.14;100572.53;5084425;28;20028;-64
2021/07/25 01:23:47;;;;;;;7.80;5.28;;;;;;;19.29;62.47;100571.81;5084697;28;20020;-64
2021/07/25 01:26:16;;;;;;;9.40;6.45;;;;;;;19.27;62.48;100568.38;5084244;28;20478;-64
2021/07/25 01:28:46;;;;;;;6.10;5.00;;;;;;;19.25;62.70;100564.97;5084029;28;20423;-64
2021/07/25 01:31:23;;;;;;;7.28;5.07;;;;;;;19.20;62.65;100577.47;5084608;28;20028;-65
2021/07/25 01:33:49;;;;;;;8.77;5.82;;;;;;;19.17;63.08;100583.72;5084346;28;20025;-65
2021/07/25 01:36:16;;;;;;;9.63;6.43;;;;;;;19.15;62.99;100584.72;5084321;28;20013;-64
2021/07/25 01:38:41;;;;;;;6.97;5.22;;;;;;;19.11;63.23;100583.09;5084144;28;20020;-64
2021/07/25 01:41:09;;;;;;;9.25;6.22;;;;;;;19.04;63.18;100578.06;5084383;28;20020;-64
2021/07/25 01:43:47;;;;;;;8.40;5.75;;;;;;;19.04;63.49;100591.22;5084193;28;20044;-64
2021/07/25 01:46:13;;;;;;;6.70;5.22;;;;;;;19.00;63.80;100579.13;5084055;28;20369;-65
2021/07/25 01:48:38;;;;;;;8.63;5.45;;;;;;;18.96;63.95;100580.19;5083953;28;20028;-64
2021/07/25 01:51:05;;;;;;;10.13;6.70;;;;;;;18.94;64.08;100584.63;5083919;28;20024;-63
2021/07/25 01:53:32;;;;;;;10.25;6.78;;;;;;;18.91;64.16;100571.63;5084213;28;20031;-64
2021/07/25 01:55:57;;;;;;;10.75;5.65;;;;;;;18.88;64.30;100583.09;5083854;28;20021;-64
2021/07/25 01:58:22;;;;;;;8.30;5.90;;;;;;;18.86;64.49;100584.09;5083634;28;20108;-63
2021/07/25 02:00:49;;;;;;;7.60;5.90;;;;;;;18.81;64.63;100585.13;5082529;28;20028;-65
2021/07/25 02:03:26;;;;;;;7.45;5.15;;;;;;;18.82;64.70;100589.47;5083851;28;20360;-65
2021/07/25 02:05:52;;;;;;;10.57;5.63;;;;;;;18.81;64.97;100579.88;5083775;28;20054;-64
2021/07/25 02:08:19;;;;;;;9.05;5.43;;;;;;;18.76;65.37;100581.84;5083749;28;20025;-63
2021/07/25 02:10:49;;;;;;;10.00;5.85;;;;;;;18.72;65.80;100582.88;5083780;28;20020;-65
2021/07/25 02:13:16;;;;;;;7.80;6.10;;;;;;;18.73;66.10;100573.19;5083552;28;20107;-65
2021/07/25 02:15:43;;;;;;;7.05;5.32;;;;;;;18.64;66.50;100566.56;5083678;28;20080;-65
2021/07/25 02:18:12;;;;;;;8.02;5.72;;;;;;;18.65;66.58;100571.75;5083713;28;20021;-65
2021/07/25 02:20:37;;;;;;;8.23;5.75;;;;;;;18.71;66.90;100570.63;5083637;28;20016;-65
2021/07/25 02:23:03;;;;;;;9.25;5.72;;;;;;;18.66;67.08;100570.81;5083411;28;20380;-65
2021/07/25 02:25:29;;;;;;;11.50;6.75;;;;;;;18.64;67.35;100569.19;5083781;28;20032;-65
2021/07/25 02:27:54;;;;;;;7.88;5.95;;;;;;;18.61;67.13;100571.94;5083515;28;20025;-64
2021/07/25 02:30:20;;;;;;;9.82;6.45;;;;;;;18.58;67.53;100568.50;5083510;28;20047;-65
2021/07/25 02:32:45;;;;;;;10.13;5.60;;;;;;;18.54;67.45;100561.66;5083618;28;20048;-65
2021/07/25 02:35:11;;;;;;;6.97;5.55;;;;;;;18.53;67.63;100557.31;5083454;28;20548;-64
2021/07/25 02:37:36;;;;;;;8.52;6.13;;;;;;;18.61;67.73;100577.19;5083504;28;20028;-64
2021/07/25 02:40:03;;;;;;;9.93;6.95;;;;;;;18.55;67.88;100573.88;5083777;28;20512;-64
2021/07/25 02:42:28;;;;;;;10.38;6.30;;;;;;;18.56;68.02;100580.00;5083515;28;20056;-65
2021/07/25 02:44:53;;;;;;;6.97;5.22;;;;;;;18.53;68.31;100582.75;5083352;28;20021;-65
2021/07/25 02:47:19;;;;;;;12.95;6.13;;;;;;;18.51;68.11;100580.19;5083260;28;20035;-65
2021/07/25 02:49:44;;;;;;;9.40;5.95;;;;;;;18.51;68.27;100581.94;5082017;28;20035;-65
2021/07/25 02:52:09;;;;;;;10.15;6.18;;;;;;;18.45;68.47;100585.69;5083194;28;20031;-64
2021/07/25 02:54:35;;;;;;;8.93;6.03;;;;;;;18.45;68.47;100575.16;5082043;28;20021;-64
2021/07/25 02:57:00;;;;;;;11.45;6.72;;;;;;;18.44;68.66;100576.06;5081670;28;20048;-65
2021/07/25 02:59:25;;;;;;;9.98;6.65;;;;;;;18.44;68.41;100586.59;5083315;28;20020;-64
2021/07/25 03:01:51;;;;;;;9.32;6.00;;;;;;;18.42;68.59;100578.75;5083353;28;20029;-64
2021/07/25 03:04:17;;;;;;;7.10;5.75;;;;;;;18.39;68.56;100581.50;5083307;28;20021;-65
2021/07/25 03:06:42;;;;;;;7.68;5.90;;;;;;;18.36;68.61;100565.00;5083025;28;20079;-64
2021/07/25 03:09:08;;;;;;;10.18;6.60;;;;;;;18.36;68.58;100571.13;5083059;28;20021;-65
2021/07/25 03:11:34;;;;;;;9.10;6.70;;;;;;;18.35;68.53;100577.28;5083133;28;20055;-64
2021/07/25 03:14:00;;;;;;;11.00;6.30;;;;;;;18.36;68.42;100584.25;5083183;28;20107;-64
2021/07/25 03:16:25;;;;;;;8.93;6.72;;;;;;;18.35;68.84;100584.31;5083219;28;20031;-64
2021/07/25 03:18:50;;;;;;;10.27;6.72;;;;;;;18.35;69.05;100579.06;5083086;28;20416;-64
2021/07/25 03:21:16;;;;;;;7.07;5.45;;;;;;;18.37;69.46;100579.88;5082987;28;20059;-64
2021/07/25 03:23:41;;;;;;;7.28;5.90;;;;;;;18.45;69.48;100572.53;5083081;28;20084;-64
2021/07/25 03:26:06;;;;;;;7.30;6.13;;;;;;;18.55;69.62;100573.88;5082885;28;20024;-64
2021/07/25 03:28:32;;;;;;;7.43;6.10;;;;;;;18.69;69.27;100572.50;5082118;28;20035;-64
2021/07/25 03:30:57;;;;;;;9.18;6.22;;;;;;;18.85;69.17;100577.13;5082725;28;20039;-64
2021/07/25 03:33:22;;;;;;;8.40;5.78;;;;;;;19.03;68.74;100584.25;5082968;28;20040;-64
2021/07/25 03:35:48;;;;;;;8.05;5.65;;;;;;;19.18;68.40;100577.53;5083119;28;20027;-64
2021/07/25 03:38:15;;;;;;;9.48;6.10;;;;;;;19.32;67.99;100576.97;5082826;28;20521;-65
2021/07/25 03:40:42;;;;;;;9.38;5.90;;;;;;;19.43;67.33;100568.59;5083123;28;20031;-65
2021/07/25 03:43:08;;;;;;;8.43;6.10;;;;;;;19.47;67.30;100577.22;5086084;28;20032;-65
2021/07/25 03:45:35;;;;;;;8.13;5.80;;;;;;;19.54;66.97;100573.38;5086559;28;20028;-65
2021/07/25 03:48:00;;;;;;;8.52;6.18;;;;;;;19.62;66.84;100578.31;5086315;28;20028;-65
2021/07/25 03:50:26;;;;;;;7.82;5.45;;;;;;;19.74;66.27;100571.66;5086326;28;20028;-65
2021/07/25 03:52:51;;;;;;;7.63;6.15;;;;;;;19.86;65.94;100585.19;5086348;28;20024;-65
2021/07/25 03:55:16;;;;;;;8.07;5.28;;;;;;;19.91;65.35;100573.53;5086179;28;20527;-64
2021/07/25 03:57:42;;;;;;;7.57;5.90;;;;;;;20.00;65.16;100582.78;5085987;28;20048;-65
2021/07/25 04:00:08;;;;;;;6.20;4.75;;;;;;;20.08;64.61;100571.94;5086285;28;20431;-65
2021/07/25 04:02:33;;;;;;;6.65;5.40;;;;;;;20.20;64.07;100562.63;5085995;28;20493;-64
2021/07/25 04:04:58;;;;;;;9.00;5.13;;;;;;;20.27;63.58;100574.56;5085980;28;20056;-65
2021/07/25 04:07:24;;;;;;;6.30;4.85;;;;;;;20.29;62.87;100578.00;5085983;28;20024;-65
2021/07/25 04:09:49;;;;;;;8.30;4.93;;;;;;;20.40;62.30;100566.94;5086111;28;20466;-65
2021/07/25 04:12:15;;;;;;;6.18;4.50;;;;;;;20.42;61.88;100565.09;5086042;28;20492;-65
2021/07/25 04:14:40;;;;;;;7.75;4.93;;;;;;;20.47;61.92;100556.97;5086215;28;20024;-65
2021/07/25 04:17:06;;;;;;;6.38;4.93;;;;;;;20.73;61.03;100561.91;5085890;28;20016;-65
2021/07/25 04:19:31;;;;;;;5.65;4.10;;;;;;;20.90;60.88;100564.56;5085627;28;20016;-64
2021/07/25 04:21:58;;;;;;;5.88;4.03;;;;;;;21.04;58.35;100568.31;5085853;28;20392;-66
2021/07/25 04:24:24;;;;;;;7.63;4.15;;;;;;;20.87;58.55;100563.84;5085783;28;20096;-64
2021/07/25 04:26:50;;;;;;;4.60;3.58;;;;;;;20.86;57.80;100554.25;5085574;28;20025;-65
2021/07/25 04:29:15;;;;;;;7.03;3.80;;;;;;;20.83;57.35;100564.94;5085398;28;20461;-68
2021/07/25 04:31:41;;;;;;;5.63;3.33;;;;;;;20.84;57.76;100561.38;5085636;28;20506;-67
2021/07/25 04:34:07;;;;;;;5.88;3.85;;;;;;;21.02;57.06;100562.28;5085529;28;20024;-67
2021/07/25 04:36:32;;;;;;;5.38;3.97;;;;;;;21.20;56.15;100559.66;5085340;28;20028;-68
2021/07/25 04:38:59;;;;;;;7.43;3.72;;;;;;;21.43;56.02;100558.47;5085355;28;20026;-67
2021/07/25 04:41:31;;;;;;;5.22;3.60;;;;;;;21.81;54.94;100556.53;5085238;28;20024;-67
2021/07/25 04:44:07;;;;;;;4.03;2.97;;;;;;;22.24;54.68;100554.19;5085422;28;20540;-68
2021/07/25 04:46:44;;;;;;;3.45;2.60;;;;;;;22.46;51.48;100545.06;5085204;28;20084;-68
2021/07/25 04:49:14;;;;;;;4.95;2.60;;;;;;;22.40;51.27;100548.03;5068111;28;20025;-67
2021/07/25 04:51:41;;;;;;;4.93;2.30;;;;;;;22.27;51.34;100553.16;5085142;28;20036;-68
2021/07/25 04:54:09;;;;;;;3.80;2.92;;;;;;;22.20;51.52;100547.38;5084040;28;20025;-67
2021/07/25 04:56:57;;;;;;;4.32;2.70;;;;;;;22.18;51.19;100549.25;5084732;28;20044;-67
2021/07/25 04:59:32;;;;;;;3.35;2.63;;;;;;;22.14;51.49;100556.50;5084899;28;20020;-67
2021/07/25 05:02:06;;;;;;;3.45;2.20;;;;;;;22.36;50.70;100552.69;5085160;28;20020;-67
2021/07/25 05:04:32;;;;;;;4.00;2.50;;;;;;;22.43;50.34;100550.53;5084833;28;20024;-67
2021/07/25 05:06:58;;;;;;;3.75;2.53;;;;;;;22.49;49.85;100555.47;5083503;28;20025;-67
2021/07/25 05:09:24;;;;;;;6.32;2.63;;;;;;;22.67;50.16;100560.69;5083579;28;20020;-68
2021/07/25 05:12:28;;;;;;;3.35;2.40;;;;;;;23.16;49.16;100556.13;5084904;28;20046;-67
2021/07/25 05:15:02;;;;;;;3.17;2.28;;;;;;;23.49;48.17;100557.72;5078697;28;20058;-67
2021/07/25 05:17:30;;;;;;;2.75;2.00;;;;;;;23.69;47.76;100563.56;5084810;28;20020;-67
2021/07/25 05:20:01;;;;;;;3.10;2.25;;;;;;;23.80;45.89;100559.44;5084784;28;20046;-67
2021/07/25 05:22:45;;;;;;;4.20;2.47;;;;;;;23.46;47.33;100568.50;5084490;28;20060;-68
2021/07/25 05:25:10;;;;;;;3.13;2.15;;;;;;;23.55;48.02;100566.25;5084439;28;20046;-68
2021/07/25 05:27:43;;;;;;;3.90;2.45;;;;;;;23.82;47.34;100570.78;5084099;28;20075;-67
2021/07/25 05:30:14;;;;;;;4.18;2.50;;;;;;;23.83;46.96;100568.03;5084578;28;20103;-68
2021/07/25 05:32:40;;;;;;;3.50;2.13;;;;;;;23.92;46.52;100557.78;5084357;28;20473;-68
2021/07/25 05:35:06;;;;;;;2.80;1.90;;;;;;;24.07;46.04;100558.63;5084379;28;20028;-67
2021/07/25 05:37:31;;;;;;;2.35;2.15;;;;;;;24.14;46.25;100558.16;5084059;28;20028;-68
2021/07/25 05:39:57;;;;;;;3.35;1.90;;;;;;;24.12;45.97;100557.38;5084306;28;20107;-67
2021/07/25 05:42:22;;;;;;;3.47;2.20;;;;;;;24.10;45.70;100558.44;5084036;28;20488;-69
2021/07/25 05:44:48;;;;;;;3.85;2.28;;;;;;;24.05;46.41;100555.22;5084538;28;20084;-69
2021/07/25 05:47:13;;;;;;;3.47;2.20;;;;;;;24.28;45.58;100555.59;5083963;28;20042;-67
2021/07/25 05:49:39;;;;;;;3.25;1.98;;;;;;;24.37;45.11;100555.84;5084055;28;20028;-67
2021/07/25 05:52:04;;;;;;;3.08;1.80;;;;;;;24.44;44.80;100537.72;5084198;28;20025;-68
2021/07/25 05:54:29;;;;;;;3.22;1.98;;;;;;;24.53;43.70;100561.97;5084253;28;20039;-68
2021/07/25 05:56:55;;;;;;;2.20;1.80;;;;;;;24.31;44.10;100558.06;5083740;28;20393;-68
2021/07/25 05:59:20;;;;;;;3.58;1.60;;;;;;;24.25;44.06;100565.44;5082698;28;20044;-68
2021/07/25 06:01:45;;;;;;;3.40;1.92;;;;;;;24.23;42.89;100547.94;5083743;28;20055;-69
2021/07/25 06:04:11;;;;;;;6.80;2.33;;;;;;;24.16;41.67;100550.13;5083596;28;20047;-68
2021/07/25 06:06:37;;;;;;;2.72;1.52;;;;;;;23.92;42.15;100547.19;5083755;28;20557;-68
2021/07/25 06:09:03;;;;;;;2.70;1.70;;;;;;;23.76;43.37;100559.63;5083799;28;20495;-68
2021/07/25 06:11:29;;;;;;;3.53;1.67;;;;;;;23.74;43.87;100550.03;5083978;28;20103;-68
2021/07/25 06:13:54;;;;;;;3.03;1.55;;;;;;;23.97;43.49;100550.41;5083479;28;20405;-68
2021/07/25 06:16:20;;;;;;;2.58;1.65;;;;;;;24.11;42.87;100538.91;5083879;28;20096;-68
2021/07/25 06:18:45;;;;;;;2.50;1.35;;;;;;;23.99;43.10;100529.97;5083720;28;20024;-68
2021/07/25 06:21:12;;;;;;;3.38;1.75;;;;;;;23.83;42.84;100541.53;5083865;28;20016;-68
2021/07/25 06:23:38;;;;;;;2.97;1.75;;;;;;;23.97;42.06;100538.00;5083445;28;20024;-68
2021/07/25 06:26:03;;;;;;;3.05;1.55;;;;;;;23.94;41.95;100535.56;5083604;28;20115;-68
2021/07/25 06:28:28;;;;;;;2.08;1.30;;;;;;;23.75;41.41;100541.16;5083567;28;20028;-68
2021/07/25 06:30:54;;;;;;;1.77;1.17;;;;;;;23.42;41.72;100559.00;5083562;28;20040;-67
2021/07/25 06:33:19;;;;;;;13.70;1.92;;;;;;;23.24;42.54;100532.66;5083521;28;20029;-67
2021/07/25 06:35:45;;;;;;;2.45;1.48;;;;;;;23.20;42.70;100536.44;5083446;28;20036;-69
2021/07/25 06:38:15;;;;;;;2.30;1.15;;;;;;;23.25;42.67;100528.22;5083375;28;20024;-68
2021/07/25 06:40:43;;;;;;;2.60;1.52;;;;;;;23.54;42.88;100523.00;5083430;28;20377;-67
2021/07/25 06:43:09;;;;;;;2.10;1.30;;;;;;;24.02;41.72;100537.72;5083701;28;20025;-68
2021/07/25 06:45:34;;;;;;;1.75;1.33;;;;;;;24.40;40.44;100530.91;5083438;28;20031;-68
2021/07/25 06:48:00;;;;;;;2.97;1.33;;;;;;;24.67;39.93;100526.53;5083330;28;20115;-68
2021/07/25 06:50:28;;;;;;;1.77;1.27;;;;;;;24.88;38.83;100525.13;5083217;28;20028;-68
2021/07/25 06:52:54;;;;;;;2.33;1.48;;;;;;;25.10;38.15;100531.66;5083356;28;20050;-68
2021/07/25 06:55:24;;;;;;;2.35;1.65;;;;;;;25.23;37.39;100528.16;5083363;28;20027;-67
2021/07/25 06:57:49;;;;;;;2.45;1.85;;;;;;;25.27;37.46;100531.47;5082771;28;20048;-67
2021/07/25 07:00:15;;;;;;;1.90;1.40;;;;;;;25.32;37.94;100532.00;5083448;28;20049;-67
2021/07/25 07:02:50;;;;;;;3.28;1.73;;;;;;;25.38;37.73;100526.25;5083343;28;20092;-68
2021/07/25 07:05:20;;;;;;;2.08;1.50;;;;;;;25.41;36.80;100526.03;5083115;28;20028;-69
2021/07/25 07:07:48;;;;;;;1.92;1.33;;;;;;;25.45;36.76;100526.66;5083531;28;20035;-67
2021/07/25 07:10:15;;;;;;;2.30;1.10;;;;;;;25.52;36.07;100525.28;5082967;28;20029;-71
2021/07/25 07:12:41;;;;;;;2.45;1.20;;;;;;;25.49;35.60;100530.81;5083237;28;20029;-72
2021/07/25 07:15:08;;;;;;;2.13;1.20;;;;;;;25.45;35.32;100531.97;5083194;28;20400;-67
2021/07/25 07:17:33;;;;;;;1.75;1.35;;;;;;;25.27;35.07;100536.78;5085547;28;20025;-68
2021/07/25 07:19:59;;;;;;;1.80;0.95;;;;;;;25.18;35.43;100535.56;5087160;28;20431;-70
2021/07/25 07:22:29;;;;;;;3.08;1.23;;;;;;;25.27;34.02;100540.28;5086842;28;20026;-69
2021/07/25 07:24:55;;;;;;;1.75;1.15;;;;;;;25.27;33.90;100540.28;5087025;28;20020;-67
2021/07/25 07:27:22;;;;;;;1.85;0.90;;;;;;;25.26;34.20;100535.91;5085272;28;20020;-67
2021/07/25 07:29:47;;;;;;;1.90;1.33;;;;;;;25.29;34.22;100529.56;5086682;28;20020;-66
2021/07/25 07:32:13;;;;;;;2.00;1.23;;;;;;;25.64;35.00;100536.03;5086850;28;20024;-67
2021/07/25 07:34:38;;;;;;;2.08;1.35;;;;;;;26.26;33.67;100525.47;5085098;28;20100;-66
2021/07/25 07:37:04;;;;;;;1.58;1.10;;;;;;;26.66;32.61;100530.50;5086560;28;20389;-67
2021/07/25 07:39:30;;;;;;;2.78;1.10;;;;;;;26.79;31.63;100526.94;5086203;28;20021;-66
2021/07/25 07:41:55;;;;;;;2.80;1.30;;;;;;;26.73;31.38;100528.22;5086460;28;20552;-71
2021/07/25 07:44:20;;;;;;;1.77;1.25;;;;;;;26.58;31.61;100524.91;5084994;28;20047;-70
2021/07/25 07:46:46;;;;;;;4.22;1.27;;;;;;;26.65;31.55;100512.84;5086529;28;20027;-70
2021/07/25 07:49:11;;;;;;;1.88;1.10;;;;;;;26.73;31.47;100518.44;5084802;28;20036;-68
2021/07/25 07:51:36;;;;;;;1.52;1.02;;;;;;;26.67;31.20;100513.56;5086024;28;20056;-65
2021/07/25 07:54:02;;;;;;;2.35;1.20;;;;;;;26.60;31.78;100522.97;5086006;28;20020;-65
2021/07/25 07:56:29;;;;;;;4.05;1.30;;;;;;;26.85;31.45;100516.63;5085799;28;20019;-67
2021/07/25 07:58:55;;;;;;;1.80;1.08;;;;;;;27.01;30.63;100515.53;5086053;28;20028;-67
2021/07/25 08:01:20;;;;;;;2.67;1.50;;;;;;;27.03;30.69;100526.06;5086032;28;20062;-68
2021/07/25 08:03:45;;;;;;;1.60;1.20;;;;;;;26.76;30.95;100522.66;5085979;28;20031;-68
2021/07/25 08:06:11;;;;;;;1.50;1.13;;;;;;;26.50;31.10;100516.66;5085722;28;20090;-68
2021/07/25 08:08:36;;;;;;;1.75;1.08;;;;;;;26.15;30.58;100521.75;5085928;28;20016;-67
2021/07/25 08:11:01;;;;;;;3.10;1.45;;;;;;;25.84;30.85;100534.63;5085847;28;20016;-67
2021/07/25 08:13:27;;;;;;;2.17;1.25;;;;;;;25.60;31.67;100538.88;5085791;28;20020;-68
2021/07/25 08:15:52;;;;;;;2.70;1.38;;;;;;;25.49;32.42;100529.03;5085620;28;20079;-67
2021/07/25 08:18:17;;;;;;;1.80;1.20;;;;;;;25.62;32.02;100530.84;5085531;28;20095;-68
2021/07/25 08:20:43;;;;;;;3.28;1.35;;;;;;;25.57;32.40;100524.97;5083886;28;20056;-70
2021/07/25 08:23:08;;;;;;;1.65;1.05;;;;;;;25.43;32.92;100539.22;5085477;28;20029;-68
2021/07/25 08:25:33;;;;;;;2.47;1.23;;;;;;;25.46;33.16;100537.19;5085537;28;20027;-69
2021/07/25 08:27:59;;;;;;;2.00;1.20;;;;;;;25.51;32.85;100539.53;5085038;28;20071;-68
2021/07/25 08:30:25;;;;;;;2.45;1.15;;;;;;;25.63;32.29;100535.19;5085363;28;20033;-68
2021/07/25 08:32:51;;;;;;;2.78;1.20;;;;;;;25.88;31.90;100537.91;5085513;28;20082;-66
2021/07/25 08:35:16;;;;;;;2.42;1.15;;;;;;;26.11;32.08;100526.47;5085230;28;20024;-68
2021/07/25 08:37:41;;;;;;;2.28;1.17;;;;;;;26.50;31.14;100536.13;5085082;28;20021;-68
2021/07/25 08:40:07;;;;;;;2.22;0.90;;;;;;;26.84;30.42;100530.94;5085117;28;20020;-68
2021/07/25 08:42:36;;;;;;;3.45;1.33;;;;;;;26.75;30.83;100528.97;5085073;28;20037;-68
2021/07/25 08:45:02;;;;;;;1.42;1.00;;;;;;;26.91;30.42;100526.00;5085097;28;20029;-68
2021/07/25 08:47:34;;;;;;;1.50;0.98;;;;;;;26.95;29.06;100527.44;5083589;28;20094;-68
2021/07/25 08:50:02;;;;;;;1.90;1.27;;;;;;;26.99;29.27;100525.41;5084898;28;20024;-68
2021/07/25 08:52:31;;;;;;;2.38;1.10;;;;;;;27.29;29.30;100544.50;5084920;28;20056;-67
2021/07/25 08:55:00;;;;;;;1.65;1.10;;;;;;;27.22;28.04;100531.66;5085130;28;20085;-66
2021/07/25 08:57:31;;;;;;;1.60;1.10;;;;;;;26.93;28.83;100534.72;5084725;28;20386;-68
2021/07/25 09:00:01;;;;;;;2.00;1.25;;;;;;;26.98;29.51;100537.03;5085031;28;20029;-68
2021/07/25 09:02:31;;;;;;;2.35;1.10;;;;;;;27.33;28.96;100532.66;5084903;28;20029;-67
2021/07/25 09:04:58;;;;;;;2.38;1.20;;;;;;;27.62;29.32;100523.31;5084627;28;20050;-68
2021/07/25 09:07:29;;;;;;;2.47;1.40;;;;;;;27.94;28.70;100534.09;5084946;28;20028;-67
2021/07/25 09:10:07;;;;;;;2.22;1.25;;;;;;;27.99;29.05;100530.22;5084798;28;20047;-67
2021/07/25 09:12:33;;;;;;;1.58;1.05;;;;;;;28.03;28.51;100542.34;5084732;28;20028;-67
2021/07/25 09:15:03;;;;;;;3.45;1.17;;;;;;;28.23;28.53;100534.53;5084670;28;20034;-67
2021/07/25 09:17:29;;;;;;;1.63;1.30;;;;;;;28.24;27.40;100529.06;5084560;28;20029;-67
2021/07/25 09:20:13;;;;;;;1.60;1.02;;;;;;;28.11;27.71;100533.69;5084353;28;20113;-66
2021/07/25 09:22:48;;;;;;;1.60;1.00;;;;;;;27.90;27.84;100534.47;5084456;28;20020;-67
2021/07/25 09:25:19;;;;;;;1.52;1.00;;;;;;;28.12;26.62;100527.38;5084215;28;20049;-67
2021/07/25 09:27:45;;;;;;;2.10;1.40;;;;;;;28.15;26.61;100521.81;5084404;28;20052;-67
2021/07/25 09:30:20;;;;;;;1.50;1.00;;;;;;;28.04;27.00;100522.66;5084178;28;20059;-67
2021/07/25 09:32:46;;;;;;;3.08;1.42;;;;;;;28.31;26.55;100534.72;5084431;28;20020;-68
2021/07/25 09:35:39;;;;;;;1.60;1.02;;;;;;;28.81;26.08;100520.00;5084369;28;20016;-68
2021/07/25 09:38:07;;;;;;;3.55;1.65;;;;;;;28.60;26.25;100539.50;5084226;28;20021;-68
2021/07/25 09:40:35;;;;;;;2.20;1.30;;;;;;;28.47;26.03;100536.19;5083641;28;20032;-69
2021/07/25 09:43:06;;;;;;;3.47;1.20;;;;;;;28.24;26.73;100526.41;5084118;28;20059;-69
2021/07/25 09:45:32;;;;;;;;;;;;;;;28.18;27.01;100529.56;5084586;28;20027;-69
2021/07/25 09:48:09;;;;;;;1.67;1.20;;;;;;;28.44;26.71;100521.25;5084268;28;19927;-68
2021/07/25 09:50:35;;;;;;;2.40;1.25;;;;;;;28.63;26.35;100520.56;5083984;28;20503;-68
2021/07/25 09:53:01;;;;;;;2.17;1.20;;;;;;;28.72;25.99;100516.28;5083984;28;20083;-68
2021/07/25 09:55:30;;;;;;;2.97;1.30;;;;;;;28.69;25.41;100511.22;5084146;28;20031;-68
2021/07/25 09:57:58;;;;;;;1.98;1.30;;;;;;;28.57;25.55;100518.41;5083848;28;20036;-69
2021/07/25 10:00:39;;;;;;;2.50;1.60;;;;;;;28.54;26.10;100535.56;5084129;28;20050;-68
2021/07/25 10:03:32;;;;;;;1.70;1.00;;;;;;;28.78;25.78;100522.94;5084009;28;20053;-69
2021/07/25 10:05:59;;;;;;;2.00;1.50;;;;;;;28.77;25.63;100534.59;5083872;28;20040;-69
2021/07/25 10:08:27;;;;;;;2.47;1.60;;;;;;;28.61;26.04;100517.16;5083716;28;20121;-69
2021/07/25 10:10:54;;;;;;;3.15;1.55;;;;;;;28.66;25.94;100514.97;5083847;28;20030;-69
2021/07/25 10:13:26;;;;;;;3.28;1.38;;;;;;;28.45;26.30;100504.28;5083492;28;20035;-68
2021/07/25 10:15:56;;;;;;;3.00;1.20;;;;;;;28.06;26.32;100512.72;5083904;28;20024;-68
2021/07/25 10:18:23;;;;;;;1.92;1.27;;;;;;;28.00;25.52;100526.56;5083586;28;20017;-68
2021/07/25 10:20:54;;;;;;;3.08;1.42;;;;;;;27.67;26.02;100513.19;5083668;28;20347;-69
2021/07/25 10:23:25;;;;;;;3.60;1.83;;;;;;;27.80;26.47;100507.69;5083800;28;20532;-69
2021/07/25 10:25:54;;;;;;;2.15;1.42;;;;;;;28.22;25.86;100512.31;5083532;28;20132;-68
2021/07/25 10:28:24;;;;;;;1.67;1.15;;;;;;;28.31;25.60;100518.72;5083705;28;20031;-69
2021/07/25 10:30:50;;;;;;;2.30;1.58;;;;;;;28.47;25.34;100515.66;5083662;28;20032;-68
2021/07/25 10:33:19;;;;;;;2.67;1.90;;;;;;;28.35;25.49;100514.88;5083736;28;20062;-68
2021/07/25 10:35:46;;;;;;;3.05;1.40;;;;;;;28.51;25.30;100506.44;5083554;28;20024;-67
2021/07/25 10:38:11;;;;;;;1.77;1.38;;;;;;;28.30;25.39;100517.03;5083715;28;20027;-67
2021/07/25 10:40:38;;;;;;;2.33;1.60;;;;;;;28.30;25.16;100517.03;5083535;28;20020;-69
2021/07/25 10:43:06;;;;;;;2.33;1.63;;;;;;;27.93;26.26;100520.88;5083316;28;20028;-69
2021/07/25 10:45:35;;;;;;;2.28;1.90;;;;;;;27.89;26.63;100519.44;5083453;28;20089;-70
2021/07/25 10:48:16;;;;;;;2.00;1.40;;;;;;;28.11;26.59;100521.22;5083213;28;20013;-70
2021/07/25 10:50:45;;;;;;;1.90;1.40;;;;;;;28.27;26.56;100527.97;5083493;28;20021;-69
2021/07/25 10:53:23;;;;;;;1.77;1.30;;;;;;;28.54;25.84;100514.19;5087481;28;20021;-69
2021/07/25 10:55:48;;;;;;;2.33;1.55;;;;;;;28.99;25.09;100516.75;5087545;28;20089;-69
2021/07/25 10:58:21;;;;;;;2.00;1.40;;;;;;;29.37;24.55;100525.97;5087173;28;20045;-68
2021/07/25 11:01:04;;;;;;;2.45;1.70;;;;;;;29.36;24.30;100520.75;5087222;28;20024;-69
2021/07/25 11:03:30;;;;;;;2.53;1.33;;;;;;;28.66;25.36;100531.00;5087571;28;20602;-69
2021/07/25 11:06:34;;;;;;;2.25;1.42;;;;;;;28.00;26.41;100518.56;5087102;28;20032;-69
2021/07/25 11:08:53;;;;;;;2.45;1.65;;;;;;;27.61;27.14;100533.13;5083960;28;20032;-70
2021/07/25 11:11:37;;;;;;;2.85;2.10;;;;;;;27.19;27.74;100523.88;5086906;28;20025;-67
2021/07/25 11:14:04;;;;;;;2.58;1.63;;;;;;;27.05;28.50;100518.78;5087041;28;20070;-68
2021/07/25 11:16:29;;;;;;;3.47;1.95;;;;;;;27.09;28.35;100518.41;5087215;28;20353;-69
2021/07/25 11:18:59;;;;;;;3.05;1.80;;;;;;;26.99;27.56;100522.75;5086812;28;20016;-68
2021/07/25 11:21:31;;;;;;;2.85;2.17;;;;;;;26.90;28.42;100518.94;5086785;28;20024;-70
2021/07/25 11:23:56;;;;;;;3.47;2.13;;;;;;;26.87;28.50;100529.84;5086931;28;20035;-69
2021/07/25 11:26:31;;;;;;;3.50;1.98;;;;;;;26.79;28.64;100524.28;5086396;28;20045;-69
2021/07/25 11:28:57;;;;;;;3.45;2.17;;;;;;;26.62;29.49;100521.06;5086465;28;20021;-68